createdAt,value
2016-11-07T00:00:16.323Z,4.73
2016-11-07T00:00:38.068Z,4.73
2016-11-07T00:00:59.805Z,4.76
2016-11-07T00:01:21.544Z,4.72
2016-11-07T00:01:43.266Z,4.65
2016-11-07T00:02:04.992Z,4.59
2016-11-07T00:02:26.720Z,4.53
2016-11-07T00:02:48.450Z,4.57
2016-11-07T00:03:10.192Z,4.59
2016-11-07T00:03:31.924Z,4.57
2016-11-07T00:03:53.642Z,4.58
2016-11-07T00:04:15.374Z,4.53
2016-11-07T00:04:37.104Z,4.52
2016-11-07T00:04:58.836Z,4.63
2016-11-07T00:05:20.566Z,4.63
2016-11-07T00:05:42.303Z,4.64
2016-11-07T00:06:04.031Z,4.62
2016-11-07T00:06:25.756Z,4.59
2016-11-07T00:06:47.486Z,4.52
2016-11-07T00:07:09.222Z,4.60
2016-11-07T00:07:30.946Z,4.59
2016-11-07T00:07:52.680Z,4.61
2016-11-07T00:08:14.413Z,4.61
2016-11-07T00:08:36.139Z,4.63
2016-11-07T00:08:57.863Z,4.73
2016-11-07T00:09:19.609Z,4.69
2016-11-07T00:09:41.341Z,4.67
2016-11-07T00:10:03.085Z,4.68
2016-11-07T00:10:24.898Z,4.73
2016-11-07T00:10:46.636Z,4.74
2016-11-07T00:11:08.357Z,4.66
2016-11-07T00:11:30.111Z,4.60
2016-11-07T00:11:51.863Z,4.58
2016-11-07T00:12:13.593Z,4.58
2016-11-07T00:12:35.316Z,4.58
2016-11-07T00:12:57.049Z,4.63
2016-11-07T00:13:18.766Z,4.63
2016-11-07T00:13:40.492Z,4.53
2016-11-07T00:14:02.213Z,4.50
2016-11-07T00:14:23.945Z,4.54
2016-11-07T00:14:45.672Z,4.49
2016-11-07T00:15:07.400Z,4.47
2016-11-07T00:15:29.127Z,4.52
2016-11-07T00:15:50.856Z,4.53
2016-11-07T00:16:12.578Z,4.56
2016-11-07T00:16:34.298Z,4.56
2016-11-07T00:16:56.036Z,4.53
2016-11-07T00:17:17.778Z,4.56
2016-11-07T00:17:39.503Z,4.66
2016-11-07T00:18:01.235Z,4.70
2016-11-07T00:18:22.961Z,4.66
2016-11-07T00:18:44.677Z,4.66
2016-11-07T00:19:06.412Z,4.65
2016-11-07T00:19:28.136Z,4.60
2016-11-07T00:19:49.986Z,4.59
2016-11-07T00:20:11.754Z,4.65
2016-11-07T00:20:33.483Z,4.65
2016-11-07T00:20:55.222Z,4.68
2016-11-07T00:21:16.945Z,4.73
2016-11-07T00:21:38.664Z,4.73
2016-11-07T00:22:00.395Z,4.68
2016-11-07T00:22:22.132Z,4.73
2016-11-07T00:22:43.849Z,4.66
2016-11-07T00:23:05.580Z,4.60
2016-11-07T00:23:27.306Z,4.68
2016-11-07T00:23:49.033Z,4.75
2016-11-07T00:24:10.756Z,4.73
2016-11-07T00:24:32.576Z,4.74
2016-11-07T00:24:54.297Z,4.70
2016-11-07T00:25:16.031Z,4.64
2016-11-07T00:25:37.762Z,4.60
2016-11-07T00:25:59.478Z,4.65
2016-11-07T00:26:21.205Z,4.68
2016-11-07T00:26:42.924Z,4.63
2016-11-07T00:27:04.653Z,4.58
2016-11-07T00:27:26.384Z,4.56
2016-11-07T00:27:48.119Z,4.54
2016-11-07T00:28:09.860Z,4.59
2016-11-07T00:28:31.580Z,4.61
2016-11-07T00:28:53.332Z,4.65
2016-11-07T00:29:15.058Z,4.62
2016-11-07T00:30:03.275Z,4.57
2016-11-07T00:30:25.007Z,4.47
2016-11-07T00:30:46.726Z,4.53
2016-11-07T00:31:08.452Z,4.59
2016-11-07T00:31:30.177Z,4.66
2016-11-07T00:31:52.002Z,4.66
2016-11-07T00:32:13.752Z,4.65
2016-11-07T00:33:01.981Z,4.65
2016-11-07T00:33:23.707Z,4.59
2016-11-07T00:33:45.428Z,4.60
2016-11-07T00:34:07.160Z,4.62
2016-11-07T00:34:28.918Z,4.59
2016-11-07T00:34:50.659Z,4.63
2016-11-07T00:35:12.385Z,4.63
2016-11-07T00:35:34.109Z,4.68
2016-11-07T00:35:55.832Z,4.72
2016-11-07T00:36:17.557Z,4.75
2016-11-07T00:36:39.348Z,4.77
2016-11-07T00:37:01.091Z,4.77
2016-11-07T00:37:22.815Z,4.78
2016-11-07T00:37:44.543Z,4.79
2016-11-07T00:38:06.262Z,4.80
2016-11-07T00:38:27.985Z,4.71
2016-11-07T00:38:49.711Z,4.71
2016-11-07T00:39:11.437Z,4.75
2016-11-07T00:39:33.168Z,4.80
2016-11-07T00:39:54.895Z,4.83
2016-11-07T00:40:16.619Z,4.86
2016-11-07T00:40:38.355Z,4.86
2016-11-07T00:41:00.082Z,4.70
2016-11-07T00:41:21.814Z,4.68
2016-11-07T00:41:43.535Z,4.70
2016-11-07T00:42:05.255Z,4.59
2016-11-07T00:42:26.982Z,4.64
2016-11-07T00:42:48.714Z,4.65
2016-11-07T00:43:10.439Z,4.74
2016-11-07T00:43:32.174Z,4.78
2016-11-07T00:43:53.912Z,4.83
2016-11-07T00:44:15.677Z,4.72
2016-11-07T00:44:37.396Z,4.70
2016-11-07T00:44:59.127Z,4.68
2016-11-07T00:45:20.845Z,4.61
2016-11-07T00:45:42.570Z,4.61
2016-11-07T00:46:04.288Z,4.68
2016-11-07T00:46:26.008Z,4.72
2016-11-07T00:46:47.731Z,4.76
2016-11-07T00:47:09.456Z,4.71
2016-11-07T00:47:31.187Z,4.67
2016-11-07T00:47:52.913Z,4.62
2016-11-07T00:48:14.650Z,4.53
2016-11-07T00:48:36.380Z,4.61
2016-11-07T00:48:58.122Z,4.63
2016-11-07T00:49:19.843Z,4.62
2016-11-07T00:49:41.566Z,4.60
2016-11-07T00:50:03.294Z,4.64
2016-11-07T00:50:25.014Z,4.64
2016-11-07T00:50:46.739Z,4.59
2016-11-07T00:51:08.470Z,4.63
2016-11-07T00:51:30.190Z,4.71
2016-11-07T00:51:51.918Z,4.64
2016-11-07T00:52:13.643Z,4.68
2016-11-07T00:52:35.370Z,4.71
2016-11-07T00:52:57.097Z,4.75
2016-11-07T00:53:18.819Z,4.71
2016-11-07T00:53:40.545Z,4.63
2016-11-07T00:54:02.273Z,4.67
2016-11-07T00:54:24.007Z,4.60
2016-11-07T00:54:45.733Z,4.63
2016-11-07T00:55:07.459Z,4.63
2016-11-07T00:55:29.178Z,4.68
2016-11-07T00:55:50.909Z,4.71
2016-11-07T00:56:12.633Z,4.64
2016-11-07T00:56:34.363Z,4.62
2016-11-07T00:56:56.090Z,4.67
2016-11-07T00:57:17.821Z,4.72
2016-11-07T00:57:39.544Z,4.70
2016-11-07T00:58:01.270Z,4.70
2016-11-07T00:58:22.994Z,4.71
2016-11-07T00:58:44.736Z,4.66
2016-11-07T00:59:06.464Z,4.62
2016-11-07T00:59:28.186Z,4.63
2016-11-07T00:59:49.928Z,4.62
2016-11-07T01:00:11.672Z,4.61
2016-11-07T01:00:33.397Z,4.69
2016-11-07T01:00:55.116Z,4.64
2016-11-07T01:01:16.844Z,4.58
2016-11-07T01:01:38.565Z,4.57
2016-11-07T01:02:00.297Z,4.63
2016-11-07T01:02:22.020Z,4.69
2016-11-07T01:02:43.760Z,4.68
2016-11-07T01:03:05.481Z,4.57
2016-11-07T01:03:27.205Z,4.62
2016-11-07T01:03:48.931Z,4.68
2016-11-07T01:04:15.426Z,4.72
2016-11-07T01:04:37.173Z,4.70
2016-11-07T01:04:58.894Z,4.77
2016-11-07T01:05:20.622Z,4.80
2016-11-07T01:05:42.367Z,4.72
2016-11-07T01:06:04.096Z,4.66
2016-11-07T01:06:25.827Z,4.61
2016-11-07T01:06:47.560Z,4.68
2016-11-07T01:07:09.290Z,4.75
2016-11-07T01:07:31.011Z,4.77
2016-11-07T01:07:52.729Z,4.74
2016-11-07T01:08:14.453Z,4.60
2016-11-07T01:08:36.178Z,4.56
2016-11-07T01:08:57.916Z,4.55
2016-11-07T01:09:19.637Z,4.53
2016-11-07T01:09:41.359Z,4.51
2016-11-07T01:10:03.108Z,4.56
2016-11-07T01:10:24.808Z,4.60
2016-11-07T01:10:46.596Z,4.60
2016-11-07T01:11:08.325Z,4.60
2016-11-07T01:11:30.051Z,4.61
2016-11-07T01:11:51.775Z,4.65
2016-11-07T01:12:13.511Z,4.65
2016-11-07T01:12:35.233Z,4.61
2016-11-07T01:12:56.959Z,4.67
2016-11-07T01:13:18.674Z,4.69
2016-11-07T01:13:40.392Z,4.65
2016-11-07T01:14:02.122Z,4.58
2016-11-07T01:14:23.852Z,4.54
2016-11-07T01:14:45.564Z,4.50
2016-11-07T01:15:07.301Z,4.54
2016-11-07T01:15:29.164Z,4.60
2016-11-07T01:15:50.917Z,4.62
2016-11-07T01:16:12.639Z,4.62
2016-11-07T01:16:34.360Z,4.67
2016-11-07T01:16:56.078Z,4.60
2016-11-07T01:17:22.580Z,4.68
2016-11-07T01:17:44.298Z,4.70
2016-11-07T01:18:06.034Z,4.71
2016-11-07T01:18:27.751Z,4.73
2016-11-07T01:18:49.472Z,4.62
2016-11-07T01:19:11.203Z,4.58
2016-11-07T01:19:32.946Z,4.58
2016-11-07T01:19:54.666Z,4.62
2016-11-07T01:20:16.400Z,4.69
2016-11-07T01:20:38.119Z,4.72
2016-11-07T01:20:59.847Z,4.70
2016-11-07T01:21:21.579Z,4.71
2016-11-07T01:21:43.304Z,4.75
2016-11-07T01:22:05.027Z,4.68
2016-11-07T01:22:26.755Z,4.62
2016-11-07T01:22:48.472Z,4.66
2016-11-07T01:23:10.198Z,4.71
2016-11-07T01:23:31.917Z,4.75
2016-11-07T01:23:53.640Z,4.75
2016-11-07T01:24:15.360Z,4.73
2016-11-07T01:24:37.080Z,4.67
2016-11-07T01:24:58.797Z,4.59
2016-11-07T01:25:20.527Z,4.54
2016-11-07T01:25:42.245Z,4.52
2016-11-07T01:26:03.968Z,4.54
2016-11-07T01:26:25.689Z,4.63
2016-11-07T01:26:47.425Z,4.71
2016-11-07T01:27:09.152Z,4.68
2016-11-07T01:27:30.878Z,4.66
2016-11-07T01:27:52.603Z,4.68
2016-11-07T01:28:14.321Z,4.72
2016-11-07T01:28:36.058Z,4.72
2016-11-07T01:28:57.778Z,4.75
2016-11-07T01:29:19.495Z,4.82
2016-11-07T01:29:41.306Z,4.86
2016-11-07T01:30:03.024Z,4.73
2016-11-07T01:30:24.757Z,4.71
2016-11-07T01:30:46.474Z,4.62
2016-11-07T01:31:08.219Z,4.61
2016-11-07T01:31:29.960Z,4.68
2016-11-07T01:31:51.713Z,4.66
2016-11-07T01:32:13.433Z,4.60
2016-11-07T01:32:35.150Z,4.60
2016-11-07T01:32:56.880Z,4.69
2016-11-07T01:33:18.599Z,4.74
2016-11-07T01:33:40.324Z,4.72
2016-11-07T01:34:02.071Z,4.72
2016-11-07T01:34:23.797Z,4.69
2016-11-07T01:34:45.522Z,4.70
2016-11-07T01:35:07.249Z,4.63
2016-11-07T01:35:28.962Z,4.59
2016-11-07T01:35:50.678Z,4.61
2016-11-07T01:36:12.402Z,4.60
2016-11-07T01:36:34.133Z,4.56
2016-11-07T01:36:55.854Z,4.56
2016-11-07T01:37:17.581Z,4.59
2016-11-07T01:37:39.302Z,4.63
2016-11-07T01:38:01.145Z,4.73
2016-11-07T01:38:22.861Z,4.72
2016-11-07T01:38:44.594Z,4.78
2016-11-07T01:39:06.313Z,4.78
2016-11-07T01:39:28.053Z,4.72
2016-11-07T01:39:49.773Z,4.70
2016-11-07T01:40:11.493Z,4.70
2016-11-07T01:40:37.984Z,4.68
2016-11-07T01:40:59.713Z,4.65
2016-11-07T01:41:21.452Z,4.66
2016-11-07T01:41:43.163Z,4.68
2016-11-07T01:42:04.897Z,4.68
2016-11-07T01:42:26.619Z,4.74
2016-11-07T01:42:48.469Z,4.74
2016-11-07T01:43:10.202Z,4.63
2016-11-07T01:43:31.930Z,4.63
2016-11-07T01:43:53.677Z,4.62
2016-11-07T01:44:15.394Z,4.62
2016-11-07T01:44:37.115Z,4.55
2016-11-07T01:44:58.842Z,4.54
2016-11-07T01:45:20.575Z,4.54
2016-11-07T01:45:42.309Z,4.50
2016-11-07T01:46:04.027Z,4.55
2016-11-07T01:46:25.951Z,4.58
2016-11-07T01:46:47.679Z,4.63
2016-11-07T01:47:09.402Z,4.64
2016-11-07T01:47:31.122Z,4.68
2016-11-07T01:47:52.861Z,4.77
2016-11-07T01:48:14.583Z,4.74
2016-11-07T01:48:36.304Z,4.72
2016-11-07T01:48:58.022Z,4.73
2016-11-07T01:49:19.746Z,4.75
2016-11-07T01:49:41.477Z,4.74
2016-11-07T01:50:03.199Z,4.73
2016-11-07T01:50:24.927Z,4.68
2016-11-07T01:50:46.647Z,4.66
2016-11-07T01:51:08.407Z,4.68
2016-11-07T01:51:30.133Z,4.62
2016-11-07T01:51:51.863Z,4.62
2016-11-07T01:52:13.584Z,4.68
2016-11-07T01:52:35.305Z,4.69
2016-11-07T01:52:57.044Z,4.76
2016-11-07T01:53:18.761Z,4.73
2016-11-07T01:53:40.490Z,4.67
2016-11-07T01:54:02.224Z,4.67
2016-11-07T01:54:23.937Z,4.69
2016-11-07T01:54:45.707Z,4.71
2016-11-07T01:55:07.450Z,4.68
2016-11-07T01:55:29.174Z,4.67
2016-11-07T01:55:50.907Z,4.70
2016-11-07T01:56:12.631Z,4.68
2016-11-07T01:56:34.351Z,4.73
2016-11-07T01:56:56.072Z,4.79
2016-11-07T01:57:17.792Z,4.78
2016-11-07T01:57:39.515Z,4.73
2016-11-07T01:58:01.242Z,4.72
2016-11-07T01:58:22.968Z,4.70
2016-11-07T01:58:46.750Z,4.74
2016-11-07T01:59:08.490Z,4.77
2016-11-07T01:59:30.218Z,4.82
2016-11-07T01:59:51.951Z,4.77
2016-11-07T02:00:13.674Z,4.79
2016-11-07T02:00:35.403Z,4.76
2016-11-07T02:00:57.134Z,4.78
2016-11-07T02:01:18.853Z,4.80
2016-11-07T02:01:40.580Z,4.83
2016-11-07T02:02:02.301Z,4.86
2016-11-07T02:02:24.030Z,4.88
2016-11-07T02:02:45.762Z,4.92
2016-11-07T02:03:07.509Z,4.92
2016-11-07T02:03:29.234Z,4.85
2016-11-07T02:03:50.958Z,4.77
2016-11-07T02:04:12.689Z,4.77
2016-11-07T02:04:34.415Z,4.74
2016-11-07T02:04:56.137Z,4.73
2016-11-07T02:05:17.963Z,4.68
2016-11-07T02:05:39.683Z,4.67
2016-11-07T02:06:01.413Z,4.71
2016-11-07T02:06:23.133Z,4.76
2016-11-07T02:06:47.689Z,4.77
2016-11-07T02:07:09.416Z,4.76
2016-11-07T02:07:31.135Z,4.74
2016-11-07T02:07:52.869Z,4.75
2016-11-07T02:08:14.604Z,4.69
2016-11-07T02:08:36.338Z,4.68
2016-11-07T02:08:58.060Z,4.60
2016-11-07T02:09:19.799Z,4.55
2016-11-07T02:09:41.514Z,4.57
2016-11-07T02:10:03.235Z,4.62
2016-11-07T02:10:24.955Z,4.70
2016-11-07T02:10:46.686Z,4.71
2016-11-07T02:11:08.403Z,4.67
2016-11-07T02:11:30.123Z,4.63
2016-11-07T02:11:51.851Z,4.67
2016-11-07T02:12:13.573Z,4.67
2016-11-07T02:12:35.316Z,4.60
2016-11-07T02:12:57.036Z,4.64
2016-11-07T02:13:18.760Z,4.66
2016-11-07T02:13:40.479Z,4.71
2016-11-07T02:14:02.210Z,4.67
2016-11-07T02:14:23.932Z,4.66
2016-11-07T02:14:45.730Z,4.62
2016-11-07T02:15:07.446Z,4.67
2016-11-07T02:15:29.167Z,4.62
2016-11-07T02:15:50.883Z,4.61
2016-11-07T02:16:12.607Z,4.66
2016-11-07T02:16:34.324Z,4.68
2016-11-07T02:16:56.045Z,4.74
2016-11-07T02:17:17.785Z,4.72
2016-11-07T02:17:39.507Z,4.70
2016-11-07T02:18:01.226Z,4.73
2016-11-07T02:18:22.943Z,4.72
2016-11-07T02:18:44.661Z,4.72
2016-11-07T02:19:06.405Z,4.66
2016-11-07T02:19:28.141Z,4.63
2016-11-07T02:19:49.860Z,4.66
2016-11-07T02:20:11.586Z,4.62
2016-11-07T02:20:33.305Z,4.69
2016-11-07T02:20:55.022Z,4.74
2016-11-07T02:21:16.751Z,4.80
2016-11-07T02:21:38.523Z,4.76
2016-11-07T02:22:00.226Z,4.67
2016-11-07T02:22:21.953Z,4.68
2016-11-07T02:22:43.677Z,4.67
2016-11-07T02:23:05.396Z,4.68
2016-11-07T02:23:27.127Z,4.72
2016-11-07T02:23:48.848Z,4.76
2016-11-07T02:24:10.572Z,4.79
2016-11-07T02:24:32.296Z,4.82
2016-11-07T02:24:54.014Z,4.78
2016-11-07T02:25:15.742Z,4.71
2016-11-07T02:25:37.465Z,4.65
2016-11-07T02:25:59.193Z,4.65
2016-11-07T02:26:20.922Z,4.67
2016-11-07T02:26:42.638Z,4.69
2016-11-07T02:27:04.352Z,4.72
2016-11-07T02:27:26.076Z,4.73
2016-11-07T02:27:47.800Z,4.74
2016-11-07T02:28:09.521Z,4.75
2016-11-07T02:28:31.252Z,4.73
2016-11-07T02:28:52.967Z,4.69
2016-11-07T02:29:14.693Z,4.61
2016-11-07T02:29:36.414Z,4.59
2016-11-07T02:29:58.140Z,4.61
2016-11-07T02:30:19.862Z,4.66
2016-11-07T02:30:41.584Z,4.61
2016-11-07T02:31:03.322Z,4.63
2016-11-07T02:31:25.055Z,4.64
2016-11-07T02:31:46.807Z,4.64
2016-11-07T02:32:35.125Z,4.68
2016-11-07T02:32:56.851Z,4.71
2016-11-07T02:33:18.575Z,4.73
2016-11-07T02:33:40.298Z,4.69
2016-11-07T02:34:02.017Z,4.74
2016-11-07T02:34:23.806Z,4.76
2016-11-07T02:34:45.521Z,4.75
2016-11-07T02:35:07.251Z,4.80
2016-11-07T02:35:28.976Z,4.79
2016-11-07T02:35:50.701Z,4.72
2016-11-07T02:36:12.425Z,4.70
2016-11-07T02:36:34.145Z,4.71
2016-11-07T02:36:55.876Z,4.70
2016-11-07T02:37:17.733Z,4.68
2016-11-07T02:37:39.461Z,4.69
2016-11-07T02:38:01.184Z,4.71
2016-11-07T02:38:22.912Z,4.72
2016-11-07T02:38:44.642Z,4.66
2016-11-07T02:39:06.370Z,4.61
2016-11-07T02:39:28.089Z,4.67
2016-11-07T02:39:49.823Z,4.64
2016-11-07T02:40:11.554Z,4.61
2016-11-07T02:40:33.277Z,4.66
2016-11-07T02:40:54.998Z,4.63
2016-11-07T02:41:16.719Z,4.62
2016-11-07T02:41:38.441Z,4.64
2016-11-07T02:42:00.157Z,4.59
2016-11-07T02:42:21.888Z,4.54
2016-11-07T02:42:43.618Z,4.55
2016-11-07T02:43:05.361Z,4.53
2016-11-07T02:43:27.082Z,4.57
2016-11-07T02:43:48.805Z,4.65
2016-11-07T02:44:10.538Z,4.68
2016-11-07T02:44:32.332Z,4.68
2016-11-07T02:44:54.053Z,4.67
2016-11-07T02:45:15.773Z,4.69
2016-11-07T02:45:37.494Z,4.69
2016-11-07T02:45:59.226Z,4.71
2016-11-07T02:46:20.949Z,4.69
2016-11-07T02:46:42.674Z,4.67
2016-11-07T02:47:04.395Z,4.61
2016-11-07T02:47:26.112Z,4.59
2016-11-07T02:47:47.894Z,4.60
2016-11-07T02:48:09.616Z,4.63
2016-11-07T02:48:31.334Z,4.60
2016-11-07T02:48:53.069Z,4.62
2016-11-07T02:49:14.802Z,4.59
2016-11-07T02:49:36.520Z,4.61
2016-11-07T02:49:58.238Z,4.59
2016-11-07T02:50:20.109Z,4.56
2016-11-07T02:50:41.831Z,4.65
2016-11-07T02:51:03.563Z,4.67
2016-11-07T02:51:25.285Z,4.69
2016-11-07T02:51:47.014Z,4.68
2016-11-07T02:52:08.765Z,4.66
2016-11-07T02:52:30.457Z,4.55
2016-11-07T02:52:52.197Z,4.54
2016-11-07T02:53:13.926Z,4.60
2016-11-07T02:53:35.652Z,4.60
2016-11-07T02:53:57.380Z,4.61
2016-11-07T02:54:19.143Z,4.59
2016-11-07T02:54:40.860Z,4.57
2016-11-07T02:55:02.603Z,4.62
2016-11-07T02:55:24.334Z,4.58
2016-11-07T02:55:46.068Z,4.60
2016-11-07T02:56:07.792Z,4.67
2016-11-07T02:56:29.510Z,4.62
2016-11-07T02:56:51.229Z,4.62
2016-11-07T02:57:12.950Z,4.67
2016-11-07T02:57:34.677Z,4.62
2016-11-07T02:57:56.398Z,4.59
2016-11-07T02:58:18.119Z,4.55
2016-11-07T02:58:39.857Z,4.56
2016-11-07T02:59:01.587Z,4.60
2016-11-07T02:59:23.302Z,4.64
2016-11-07T02:59:45.023Z,4.72
2016-11-07T03:00:06.742Z,4.68
2016-11-07T03:00:28.464Z,4.63
2016-11-07T03:00:50.191Z,4.56
2016-11-07T03:01:11.911Z,4.49
2016-11-07T03:01:33.637Z,4.49
2016-11-07T03:01:55.358Z,4.55
2016-11-07T03:02:17.087Z,4.54
2016-11-07T03:02:38.811Z,4.56
2016-11-07T03:03:00.538Z,4.63
2016-11-07T03:03:22.278Z,4.65
2016-11-07T03:03:43.998Z,4.65
2016-11-07T03:04:05.721Z,4.59
2016-11-07T03:04:27.460Z,4.61
2016-11-07T03:04:49.201Z,4.60
2016-11-07T03:05:10.918Z,4.61
2016-11-07T03:05:32.638Z,4.60
2016-11-07T03:05:54.363Z,4.59
2016-11-07T03:06:16.103Z,4.63
2016-11-07T03:06:37.825Z,4.62
2016-11-07T03:06:59.547Z,4.67
2016-11-07T03:07:21.275Z,4.59
2016-11-07T03:07:43.004Z,4.57
2016-11-07T03:08:04.728Z,4.57
2016-11-07T03:08:26.448Z,4.52
2016-11-07T03:08:48.191Z,4.52
2016-11-07T03:09:09.911Z,4.47
2016-11-07T03:09:31.635Z,4.53
2016-11-07T03:09:53.351Z,4.61
2016-11-07T03:10:15.075Z,4.60
2016-11-07T03:10:36.795Z,4.62
2016-11-07T03:10:58.531Z,4.64
2016-11-07T03:11:20.246Z,4.68
2016-11-07T03:11:41.964Z,4.71
2016-11-07T03:12:03.693Z,4.60
2016-11-07T03:12:25.409Z,4.54
2016-11-07T03:12:47.133Z,4.57
2016-11-07T03:13:08.860Z,4.57
2016-11-07T03:13:30.584Z,4.61
2016-11-07T03:13:52.315Z,4.59
2016-11-07T03:14:14.041Z,4.61
2016-11-07T03:14:35.756Z,4.66
2016-11-07T03:14:57.487Z,4.62
2016-11-07T03:15:19.206Z,4.59
2016-11-07T03:15:40.928Z,4.50
2016-11-07T03:16:02.665Z,4.49
2016-11-07T03:16:24.378Z,4.55
2016-11-07T03:16:46.097Z,4.54
2016-11-07T03:17:07.819Z,4.53
2016-11-07T03:17:29.564Z,4.51
2016-11-07T03:17:51.283Z,4.56
2016-11-07T03:18:13.003Z,4.63
2016-11-07T03:18:34.738Z,4.65
2016-11-07T03:18:56.452Z,4.60
2016-11-07T03:19:18.176Z,4.58
2016-11-07T03:19:39.906Z,4.51
2016-11-07T03:20:01.685Z,4.52
2016-11-07T03:20:23.407Z,4.60
2016-11-07T03:20:45.128Z,4.57
2016-11-07T03:21:06.855Z,4.55
2016-11-07T03:21:28.589Z,4.59
2016-11-07T03:21:50.305Z,4.55
2016-11-07T03:22:12.046Z,4.56
2016-11-07T03:22:33.776Z,4.57
2016-11-07T03:22:55.496Z,4.57
2016-11-07T03:23:17.213Z,4.61
2016-11-07T03:23:38.937Z,4.61
2016-11-07T03:24:00.660Z,4.53
2016-11-07T03:24:22.386Z,4.55
2016-11-07T03:24:44.464Z,4.55
2016-11-07T03:25:06.156Z,4.53
2016-11-07T03:25:27.895Z,4.55
2016-11-07T03:25:49.614Z,4.50
2016-11-07T03:26:11.340Z,4.53
2016-11-07T03:26:33.056Z,4.58
2016-11-07T03:26:54.790Z,4.64
2016-11-07T03:27:16.506Z,4.63
2016-11-07T03:27:38.227Z,4.58
2016-11-07T03:27:59.948Z,4.58
2016-11-07T03:28:21.666Z,4.56
2016-11-07T03:28:43.392Z,4.57
2016-11-07T03:29:05.129Z,4.63
2016-11-07T03:29:26.979Z,4.62
2016-11-07T03:29:48.714Z,4.62
2016-11-07T03:30:10.467Z,4.57
2016-11-07T03:30:32.185Z,4.54
2016-11-07T03:30:53.909Z,4.55
2016-11-07T03:31:15.630Z,4.57
2016-11-07T03:31:37.356Z,4.58
2016-11-07T03:31:59.071Z,4.60
2016-11-07T03:32:20.799Z,4.62
2016-11-07T03:32:42.512Z,4.62
2016-11-07T03:33:04.234Z,4.61
2016-11-07T03:33:25.954Z,4.65
2016-11-07T03:33:47.671Z,4.63
2016-11-07T03:34:09.396Z,4.62
2016-11-07T03:34:31.126Z,4.65
2016-11-07T03:34:52.842Z,4.68
2016-11-07T03:35:14.570Z,4.67
2016-11-07T03:35:36.300Z,4.64
2016-11-07T03:35:58.020Z,4.67
2016-11-07T03:36:19.747Z,4.66
2016-11-07T03:36:41.466Z,4.70
2016-11-07T03:37:03.186Z,4.71
2016-11-07T03:37:24.907Z,4.76
2016-11-07T03:37:46.639Z,4.74
2016-11-07T03:38:08.365Z,4.69
2016-11-07T03:38:30.085Z,4.71
2016-11-07T03:38:51.816Z,4.73
2016-11-07T03:39:13.544Z,4.72
2016-11-07T03:39:35.268Z,4.69
2016-11-07T03:39:56.990Z,4.67
2016-11-07T03:40:18.720Z,4.67
2016-11-07T03:40:40.435Z,4.64
2016-11-07T03:41:02.166Z,4.66
2016-11-07T03:41:23.891Z,4.66
2016-11-07T03:41:45.616Z,4.60
2016-11-07T03:42:07.339Z,4.61
2016-11-07T03:42:29.066Z,4.55
2016-11-07T03:42:50.815Z,4.52
2016-11-07T03:43:12.532Z,4.52
2016-11-07T03:43:34.273Z,4.47
2016-11-07T03:43:55.995Z,4.53
2016-11-07T03:44:17.716Z,4.53
2016-11-07T03:44:39.441Z,4.56
2016-11-07T03:45:01.166Z,4.52
2016-11-07T03:45:22.894Z,4.47
2016-11-07T03:45:44.621Z,4.44
2016-11-07T03:46:06.341Z,4.50
2016-11-07T03:46:28.061Z,4.52
2016-11-07T03:46:49.782Z,4.47
2016-11-07T03:47:11.514Z,4.49
2016-11-07T03:47:33.253Z,4.50
2016-11-07T03:47:54.976Z,4.52
2016-11-07T03:48:16.696Z,4.56
2016-11-07T03:48:38.416Z,4.61
2016-11-07T03:49:02.561Z,4.61
2016-11-07T03:49:24.281Z,4.62
2016-11-07T03:49:46.002Z,4.62
2016-11-07T03:50:07.722Z,4.62
2016-11-07T03:50:29.453Z,4.59
2016-11-07T03:50:51.179Z,4.57
2016-11-07T03:51:12.900Z,4.55
2016-11-07T03:51:34.626Z,4.51
2016-11-07T03:51:56.349Z,4.50
2016-11-07T03:52:18.070Z,4.53
2016-11-07T03:52:39.791Z,4.54
2016-11-07T03:53:01.521Z,4.52
2016-11-07T03:53:23.240Z,4.46
2016-11-07T03:53:44.969Z,4.45
2016-11-07T03:54:06.697Z,4.47
2016-11-07T03:54:28.421Z,4.44
2016-11-07T03:54:50.146Z,4.45
2016-11-07T03:55:11.863Z,4.42
2016-11-07T03:55:33.598Z,4.47
2016-11-07T03:55:55.397Z,4.50
2016-11-07T03:56:17.115Z,4.52
2016-11-07T03:56:38.836Z,4.55
2016-11-07T03:57:00.586Z,4.57
2016-11-07T03:57:22.284Z,4.55
2016-11-07T03:57:44.010Z,4.56
2016-11-07T03:58:05.738Z,4.53
2016-11-07T03:58:27.463Z,4.53
2016-11-07T03:58:49.184Z,4.48
2016-11-07T03:59:10.909Z,4.47
2016-11-07T03:59:32.631Z,4.46
2016-11-07T03:59:54.350Z,4.46
2016-11-07T04:00:16.095Z,4.46
2016-11-07T04:00:37.787Z,4.54
2016-11-07T04:00:59.512Z,4.59
2016-11-07T04:01:21.235Z,4.63
2016-11-07T04:01:42.978Z,4.66
2016-11-07T04:02:04.701Z,4.67
2016-11-07T04:02:26.425Z,4.68
2016-11-07T04:02:48.145Z,4.53
2016-11-07T04:03:09.865Z,4.51
2016-11-07T04:03:31.580Z,4.53
2016-11-07T04:03:53.314Z,4.51
2016-11-07T04:04:15.035Z,4.51
2016-11-07T04:04:36.751Z,4.46
2016-11-07T04:04:58.489Z,4.38
2016-11-07T04:05:20.224Z,4.39
2016-11-07T04:05:41.946Z,4.39
2016-11-07T04:06:03.678Z,4.41
2016-11-07T04:06:25.396Z,4.42
2016-11-07T04:06:47.127Z,4.38
2016-11-07T04:07:08.856Z,4.35
2016-11-07T04:07:30.582Z,4.30
2016-11-07T04:07:52.299Z,4.34
2016-11-07T04:08:14.028Z,4.34
2016-11-07T04:08:35.786Z,4.38
2016-11-07T04:08:57.512Z,4.38
2016-11-07T04:09:19.240Z,4.42
2016-11-07T04:09:40.973Z,4.46
2016-11-07T04:10:02.697Z,4.42
2016-11-07T04:10:24.418Z,4.38
2016-11-07T04:10:46.164Z,4.36
2016-11-07T04:11:07.910Z,4.37
2016-11-07T04:11:29.650Z,4.36
2016-11-07T04:11:51.381Z,4.36
2016-11-07T04:12:13.106Z,4.34
2016-11-07T04:12:34.832Z,4.33
2016-11-07T04:12:56.546Z,4.38
2016-11-07T04:13:18.269Z,4.45
2016-11-07T04:13:39.998Z,4.46
2016-11-07T04:14:01.726Z,4.47
2016-11-07T04:14:23.453Z,4.48
2016-11-07T04:14:45.327Z,4.47
2016-11-07T04:15:07.042Z,4.50
2016-11-07T04:15:28.773Z,4.46
2016-11-07T04:15:50.504Z,4.51
2016-11-07T04:16:12.228Z,4.51
2016-11-07T04:16:33.974Z,4.53
2016-11-07T04:16:55.687Z,4.53
2016-11-07T04:17:17.403Z,4.52
2016-11-07T04:17:39.127Z,4.51
2016-11-07T04:18:00.851Z,4.45
2016-11-07T04:18:22.582Z,4.43
2016-11-07T04:18:44.293Z,4.48
2016-11-07T04:19:06.014Z,4.47
2016-11-07T04:19:27.737Z,4.45
2016-11-07T04:19:49.470Z,4.37
2016-11-07T04:20:11.198Z,4.34
2016-11-07T04:20:32.920Z,4.35
2016-11-07T04:20:54.672Z,4.31
2016-11-07T04:21:16.397Z,4.30
2016-11-07T04:21:38.142Z,4.36
2016-11-07T04:21:59.871Z,4.33
2016-11-07T04:22:21.583Z,4.33
2016-11-07T04:22:43.311Z,4.33
2016-11-07T04:23:05.035Z,4.34
2016-11-07T04:23:26.764Z,4.34
2016-11-07T04:23:48.487Z,4.30
2016-11-07T04:24:10.207Z,4.30
2016-11-07T04:24:31.935Z,4.36
2016-11-07T04:24:53.658Z,4.42
2016-11-07T04:25:15.377Z,4.43
2016-11-07T04:25:37.130Z,4.37
2016-11-07T04:25:58.846Z,4.33
2016-11-07T04:26:20.563Z,4.35
2016-11-07T04:26:42.294Z,4.35
2016-11-07T04:27:04.014Z,4.31
2016-11-07T04:27:25.744Z,4.29
2016-11-07T04:27:47.494Z,4.30
2016-11-07T04:28:09.212Z,4.29
2016-11-07T04:28:30.947Z,4.32
2016-11-07T04:28:52.667Z,4.22
2016-11-07T04:29:14.396Z,4.27
2016-11-07T04:29:36.115Z,4.32
2016-11-07T04:29:57.836Z,4.36
2016-11-07T04:30:19.572Z,4.35
2016-11-07T04:30:41.310Z,4.38
2016-11-07T04:31:03.033Z,4.37
2016-11-07T04:31:24.762Z,4.34
2016-11-07T04:31:46.484Z,4.36
2016-11-07T04:32:08.228Z,4.32
2016-11-07T04:32:29.949Z,4.27
2016-11-07T04:32:51.670Z,4.24
2016-11-07T04:33:13.388Z,4.22
2016-11-07T04:33:35.116Z,4.24
2016-11-07T04:33:56.850Z,4.21
2016-11-07T04:34:18.580Z,4.28
2016-11-07T04:34:40.305Z,4.33
2016-11-07T04:35:02.020Z,4.39
2016-11-07T04:35:23.749Z,4.44
2016-11-07T04:35:45.474Z,4.39
2016-11-07T04:36:07.197Z,4.36
2016-11-07T04:36:28.921Z,4.24
2016-11-07T04:36:50.646Z,4.22
2016-11-07T04:37:12.369Z,4.30
2016-11-07T04:37:34.103Z,4.23
2016-11-07T04:37:55.824Z,4.19
2016-11-07T04:38:17.560Z,4.30
2016-11-07T04:38:39.276Z,4.31
2016-11-07T04:39:00.999Z,4.28
2016-11-07T04:39:22.844Z,4.23
2016-11-07T04:39:44.562Z,4.22
2016-11-07T04:40:06.290Z,4.23
2016-11-07T04:40:28.013Z,4.29
2016-11-07T04:40:49.736Z,4.30
2016-11-07T04:41:11.471Z,4.24
2016-11-07T04:41:33.194Z,4.32
2016-11-07T04:41:54.919Z,4.35
2016-11-07T04:42:16.645Z,4.37
2016-11-07T04:42:38.388Z,4.36
2016-11-07T04:43:00.115Z,4.33
2016-11-07T04:43:21.879Z,4.33
2016-11-07T04:43:43.618Z,4.34
2016-11-07T04:44:05.344Z,4.36
2016-11-07T04:44:27.070Z,4.30
2016-11-07T04:44:48.797Z,4.27
2016-11-07T04:45:10.517Z,4.22
2016-11-07T04:45:32.243Z,4.24
2016-11-07T04:45:53.967Z,4.25
2016-11-07T04:46:15.689Z,4.30
2016-11-07T04:46:37.421Z,4.36
2016-11-07T04:46:59.162Z,4.34
2016-11-07T04:47:20.912Z,4.38
2016-11-07T04:47:42.638Z,4.45
2016-11-07T04:48:04.358Z,4.46
2016-11-07T04:48:26.082Z,4.45
2016-11-07T04:48:47.801Z,4.46
2016-11-07T04:49:09.519Z,4.43
2016-11-07T04:49:31.258Z,4.45
2016-11-07T04:49:52.981Z,4.41
2016-11-07T04:50:14.700Z,4.35
2016-11-07T04:50:36.426Z,4.34
2016-11-07T04:50:58.170Z,4.38